createdAt,value
2018-04-25T00:01:30.436Z,97087.52
2018-04-25T00:03:57.962Z,97091.76
2018-04-25T00:06:25.769Z,97087.22
2018-04-25T00:08:53.287Z,97086.09
2018-04-25T00:11:20.804Z,97084.82
2018-04-25T00:13:48.375Z,97089.14
2018-04-25T00:16:15.897Z,97083.02
2018-04-25T00:18:43.412Z,97082.00
2018-04-25T00:21:11.265Z,97089.80
2018-04-25T00:23:38.785Z,97084.81
2018-04-25T00:26:06.316Z,97080.69
2018-04-25T00:28:33.992Z,97079.06
2018-04-25T00:31:01.508Z,97075.20
2018-04-25T00:33:29.277Z,97071.48
2018-04-25T00:35:57.064Z,97069.03
2018-04-25T00:38:24.585Z,97067.02
2018-04-25T00:40:52.109Z,97065.64
2018-04-25T00:43:20.045Z,97067.21
2018-04-25T00:45:47.589Z,97059.02
2018-04-25T00:48:15.112Z,97057.64
2018-04-25T00:50:42.904Z,97058.14
2018-04-25T00:53:10.430Z,97055.58
2018-04-25T00:55:37.956Z,97054.80
2018-04-25T00:58:05.596Z,97057.63
2018-04-25T01:00:33.116Z,97051.03
2018-04-25T01:03:00.677Z,97044.91
2018-04-25T01:05:28.386Z,97042.13
2018-04-25T01:07:55.905Z,97043.59
2018-04-25T01:10:23.425Z,97045.11
2018-04-25T01:12:50.985Z,97042.36
2018-04-25T01:15:18.505Z,97040.77
2018-04-25T01:17:46.029Z,97041.67
2018-04-25T01:20:13.652Z,97037.78
2018-04-25T01:22:41.183Z,97041.63
2018-04-25T01:25:23.465Z,97034.28
2018-04-25T01:31:09.938Z,97024.67
2018-04-25T01:33:38.360Z,97033.48
2018-04-25T01:36:06.773Z,97028.41
2018-04-25T01:38:34.456Z,97027.39
2018-04-25T01:41:09.793Z,97022.91
2018-04-25T01:43:39.284Z,97029.61
2018-04-25T01:46:12.732Z,97026.77
2018-04-25T01:51:50.398Z,97026.97
2018-04-25T01:54:29.817Z,97022.52
2018-04-25T01:57:09.232Z,97020.28
2018-04-25T01:59:48.940Z,97014.72
2018-04-25T02:02:15.928Z,97020.42
2018-04-25T02:04:43.439Z,97012.77
2018-04-25T02:07:11.404Z,97009.08
2018-04-25T02:09:38.921Z,97001.63
2018-04-25T02:12:06.453Z,96995.59
2018-04-25T02:14:34.008Z,96999.23
2018-04-25T02:17:01.536Z,97003.33
2018-04-25T02:19:29.056Z,97004.22
2018-04-25T02:21:56.620Z,96993.73
2018-04-25T02:24:24.149Z,97000.67
2018-04-25T02:26:51.672Z,96990.44
2018-04-25T02:29:19.548Z,96991.03
2018-04-25T02:31:47.532Z,97001.30
2018-04-25T02:34:15.052Z,96996.50
2018-04-25T02:36:42.612Z,96994.20
2018-04-25T02:39:11.114Z,96993.10
2018-04-25T02:41:38.638Z,96994.67
2018-04-25T02:44:06.184Z,96999.76
2018-04-25T02:46:33.713Z,96997.48
2018-04-25T02:49:01.238Z,96997.29
2018-04-25T02:51:28.794Z,96989.31
2018-04-25T02:53:56.314Z,96987.27
2018-04-25T02:56:23.847Z,96989.34
2018-04-25T02:58:51.495Z,96986.72
2018-04-25T03:01:18.976Z,96983.25
2018-04-25T03:03:46.496Z,96981.80
2018-04-25T03:06:14.267Z,96983.27
2018-04-25T03:08:42.741Z,96981.69
2018-04-25T03:11:10.257Z,96982.91
2018-04-25T03:13:37.888Z,96982.80
2018-04-25T03:16:05.407Z,96983.94
2018-04-25T03:18:32.956Z,96979.17
2018-04-25T03:21:00.670Z,96979.08
2018-04-25T03:23:28.190Z,96978.41
2018-04-25T03:25:55.705Z,96979.01
2018-04-25T03:28:23.421Z,96981.72
2018-04-25T03:30:50.945Z,96985.86
2018-04-25T03:33:18.974Z,96979.18
2018-04-25T03:35:46.715Z,96979.97
2018-04-25T03:38:14.695Z,96980.86
2018-04-25T03:40:42.220Z,96983.83
2018-04-25T03:43:10.008Z,96984.31
2018-04-25T03:45:37.528Z,96982.48
2018-04-25T03:48:05.075Z,96983.69
2018-04-25T03:50:32.816Z,96983.66
2018-04-25T03:53:00.363Z,96981.33
2018-04-25T03:55:27.893Z,96973.81
2018-04-25T03:57:56.000Z,96971.98
2018-04-25T04:00:23.517Z,96971.42
2018-04-25T04:02:51.051Z,96970.83
2018-04-25T04:05:18.849Z,96966.05
2018-04-25T04:07:47.491Z,96974.81
2018-04-25T04:10:15.022Z,96962.81
2018-04-25T04:12:42.875Z,96963.42
2018-04-25T04:15:10.392Z,96969.72
2018-04-25T04:17:37.925Z,96968.48
2018-04-25T04:20:05.652Z,96971.22
2018-04-25T04:22:33.176Z,96966.67
2018-04-25T04:25:00.708Z,96966.34
2018-04-25T04:27:28.428Z,96965.76
2018-04-25T04:29:55.944Z,96961.75
2018-04-25T04:32:23.461Z,96963.01
2018-04-25T04:34:51.526Z,96963.60
2018-04-25T04:37:19.047Z,96954.00
2018-04-25T04:39:46.583Z,96949.00
2018-04-25T04:42:14.144Z,96943.97
2018-04-25T04:44:41.669Z,96939.77
2018-04-25T04:47:09.188Z,96937.92
2018-04-25T04:49:36.891Z,96940.52
2018-04-25T04:52:04.416Z,96942.69
2018-04-25T04:54:31.947Z,96941.07
2018-04-25T04:56:59.661Z,96951.50
2018-04-25T04:59:27.173Z,96956.77
2018-04-25T05:01:55.310Z,96958.91
2018-04-25T05:04:22.865Z,96953.35
2018-04-25T05:06:50.388Z,96961.38
2018-04-25T05:09:17.921Z,96960.81
2018-04-25T05:11:45.837Z,96961.53
2018-04-25T05:14:13.365Z,96972.09
2018-04-25T05:16:40.929Z,96971.98
2018-04-25T05:19:08.634Z,96970.36
2018-04-25T05:21:36.143Z,96974.42
2018-04-25T05:24:03.666Z,96972.59
2018-04-25T05:26:31.224Z,96970.04
2018-04-25T05:28:58.740Z,96959.62
2018-04-25T05:31:26.285Z,96968.02
2018-04-25T05:33:54.012Z,96962.47
2018-04-25T05:36:21.543Z,96959.55
2018-04-25T05:38:49.070Z,96966.80
2018-04-25T05:41:16.871Z,96959.63
2018-04-25T05:43:44.390Z,96957.63
2018-04-25T05:46:11.991Z,96965.66
2018-04-25T05:48:39.573Z,96959.78
2018-04-25T05:51:07.092Z,96958.84
2018-04-25T05:53:35.386Z,96964.52
2018-04-25T05:56:03.244Z,96966.39
2018-04-25T05:58:30.760Z,96961.56
2018-04-25T06:00:58.281Z,96966.12
2018-04-25T06:03:25.874Z,96957.23
2018-04-25T06:05:53.887Z,96964.44
2018-04-25T06:08:22.271Z,96966.01
2018-04-25T06:10:50.022Z,96966.31
2018-04-25T06:13:17.546Z,96974.51
2018-04-25T06:15:45.061Z,96974.61
2018-04-25T06:18:13.973Z,96979.06
2018-04-25T06:20:41.493Z,96974.91
2018-04-25T06:23:10.685Z,96967.36
2018-04-25T06:25:39.274Z,96966.80
2018-04-25T06:28:07.298Z,96966.02
2018-04-25T06:30:36.012Z,96970.13
2018-04-25T06:33:03.814Z,96972.08
2018-04-25T06:35:33.216Z,96970.08
2018-04-25T06:38:00.877Z,96971.72
2018-04-25T06:40:28.712Z,96971.64
2018-04-25T06:42:57.531Z,96964.38
2018-04-25T06:45:25.103Z,96960.55
2018-04-25T06:47:52.961Z,96956.77
2018-04-25T06:50:20.619Z,96959.80
2018-04-25T06:52:48.239Z,96965.63
2018-04-25T06:55:16.565Z,96964.20
2018-04-25T06:57:44.220Z,96973.31
2018-04-25T07:00:11.736Z,96968.84
2018-04-25T07:02:39.409Z,96963.69
2018-04-25T07:05:06.942Z,96965.91
2018-04-25T07:07:34.484Z,96968.37
2018-04-25T07:10:04.653Z,96971.00
2018-04-25T07:12:32.700Z,96971.73
2018-04-25T07:15:00.258Z,96977.51
2018-04-25T07:17:28.105Z,96966.47
2018-04-25T07:19:56.480Z,96968.86
2018-04-25T07:22:24.083Z,96976.11
2018-04-25T07:24:51.937Z,96979.46
2018-04-25T07:27:19.850Z,96973.84
2018-04-25T07:29:47.439Z,96979.94
2018-04-25T07:32:15.374Z,96978.44
2018-04-25T07:34:42.934Z,96967.59
2018-04-25T07:37:17.084Z,96980.95
2018-04-25T07:39:44.708Z,96986.83
2018-04-25T07:42:12.237Z,96986.26
2018-04-25T07:44:39.918Z,96981.56
2018-04-25T07:47:07.429Z,96975.63
2018-04-25T07:49:35.867Z,96981.39
2018-04-25T07:52:03.509Z,96979.34
2018-04-25T07:54:31.025Z,96974.13
2018-04-25T07:56:58.547Z,96973.88
2018-04-25T07:59:26.397Z,96969.91
2018-04-25T08:01:53.915Z,96965.52
2018-04-25T08:04:21.429Z,96962.23
2018-04-25T08:06:49.172Z,96965.06
2018-04-25T08:09:16.685Z,96961.66
2018-04-25T08:11:44.201Z,96954.27
2018-04-25T08:14:23.726Z,96965.30
2018-04-25T08:17:02.896Z,96946.42
2018-04-25T08:22:38.752Z,96953.37
2018-04-25T08:25:06.500Z,96966.73
2018-04-25T08:27:34.025Z,96955.02
2018-04-25T08:30:01.545Z,96969.73
2018-04-25T08:32:29.107Z,96961.84
2018-04-25T08:34:56.636Z,96967.25
2018-04-25T08:37:24.166Z,96973.25
2018-04-25T08:39:51.739Z,96966.87
2018-04-25T08:42:19.250Z,96981.98
2018-04-25T08:44:48.002Z,96970.91
2018-04-25T08:47:17.317Z,96976.49
2018-04-25T08:49:44.829Z,96987.56
2018-04-25T08:52:12.846Z,96992.80
2018-04-25T08:54:40.691Z,96984.50
2018-04-25T08:57:08.205Z,96986.62
2018-04-25T08:59:35.726Z,96985.22
2018-04-25T09:02:03.697Z,96975.83
2018-04-25T09:04:31.214Z,96991.59
2018-04-25T09:06:58.732Z,96979.11
2018-04-25T09:09:26.291Z,96978.62
2018-04-25T09:11:53.821Z,96981.67
2018-04-25T09:14:21.331Z,96966.06
2018-04-25T09:16:49.028Z,96972.27
2018-04-25T09:19:16.542Z,96993.03
2018-04-25T09:21:44.058Z,96990.91
2018-04-25T09:24:12.447Z,96975.75
2018-04-25T09:26:40.416Z,96974.34
2018-04-25T09:29:07.937Z,96959.02
2018-04-25T09:31:35.485Z,96980.28
2018-04-25T09:34:02.996Z,96983.41
2018-04-25T09:36:30.546Z,96984.37
2018-04-25T09:38:58.399Z,96992.50
2018-04-25T09:41:25.999Z,96971.92
2018-04-25T09:43:53.455Z,96973.13
2018-04-25T09:46:20.993Z,96980.38
2018-04-25T09:48:49.476Z,96977.79
2018-04-25T09:51:17.069Z,96977.03
2018-04-25T09:53:44.852Z,96985.84
2018-04-25T09:56:12.364Z,96981.14
2018-04-25T09:58:39.886Z,96996.30
2018-04-25T10:01:07.705Z,96978.81
2018-04-25T10:03:35.275Z,96977.84
2018-04-25T10:06:02.788Z,96977.94
2018-04-25T10:08:30.770Z,96967.44
2018-04-25T10:10:58.340Z,96971.97
2018-04-25T10:13:25.822Z,96967.91
2018-04-25T10:15:53.508Z,96978.31
2018-04-25T10:18:21.034Z,96964.64
2018-04-25T10:20:48.612Z,96974.34
2018-04-25T10:23:16.413Z,96969.24
2018-04-25T10:25:44.013Z,96980.20
2018-04-25T10:28:11.474Z,96982.05
2018-04-25T10:30:39.078Z,96971.30
2018-04-25T10:33:06.729Z,96952.90
2018-04-25T10:35:34.236Z,96962.02
2018-04-25T10:38:02.093Z,96978.67
2018-04-25T10:40:29.649Z,96976.92
2018-04-25T10:42:57.136Z,96985.21
2018-04-25T10:45:25.902Z,96979.14
2018-04-25T10:47:53.414Z,96969.30
2018-04-25T10:50:20.943Z,96980.15
2018-04-25T10:52:48.712Z,96977.41
2018-04-25T10:55:16.298Z,96982.87
2018-04-25T10:57:43.746Z,96977.53
2018-04-25T11:00:11.463Z,96982.05
2018-04-25T11:02:38.976Z,96974.66
2018-04-25T11:05:06.493Z,96983.45
2018-04-25T11:07:34.060Z,96966.76
2018-04-25T11:10:01.579Z,96977.42
2018-04-25T11:12:29.092Z,96973.45
2018-04-25T11:14:56.653Z,96967.64
2018-04-25T11:17:24.459Z,96970.95
2018-04-25T11:19:52.044Z,96969.24
2018-04-25T11:22:19.627Z,96978.73
2018-04-25T11:24:47.975Z,96982.47
2018-04-25T11:27:15.500Z,96979.52
2018-04-25T11:29:43.284Z,97000.81
2018-04-25T11:32:10.808Z,97002.30
2018-04-25T11:34:38.319Z,96990.75
2018-04-25T11:37:06.066Z,96993.27
2018-04-25T11:39:33.587Z,96989.16
2018-04-25T11:42:01.101Z,96986.75
2018-04-25T11:44:28.846Z,96994.44
2018-04-25T11:46:56.856Z,97000.63
2018-04-25T11:49:25.315Z,96997.65
2018-04-25T11:51:52.909Z,96996.20
2018-04-25T11:54:20.448Z,97007.52
2018-04-25T11:56:47.955Z,97008.45
2018-04-25T11:59:15.504Z,97004.91
2018-04-25T12:01:46.291Z,97004.81
2018-04-25T12:04:13.823Z,97006.02
2018-04-25T12:06:41.365Z,97000.61
2018-04-25T12:09:08.875Z,97007.48
2018-04-25T12:11:36.380Z,97009.45
2018-04-25T12:14:04.164Z,97009.85
2018-04-25T12:16:31.675Z,97005.06
2018-04-25T12:18:59.196Z,96999.58
2018-04-25T12:21:26.736Z,97014.83
2018-04-25T12:23:54.254Z,97002.99
2018-04-25T12:26:21.911Z,97007.88
2018-04-25T12:28:49.713Z,97008.33
2018-04-25T12:31:17.224Z,97013.77
2018-04-25T12:33:44.736Z,97012.80
2018-04-25T12:36:12.541Z,97016.38
2018-04-25T12:38:40.267Z,97008.10
2018-04-25T12:41:07.847Z,97017.24
2018-04-25T12:43:37.147Z,97022.64
2018-04-25T12:46:05.015Z,97025.20
2018-04-25T12:48:32.904Z,97030.00
2018-04-25T12:51:00.825Z,97030.54
2018-04-25T12:53:28.352Z,97024.75
2018-04-25T12:55:55.917Z,97018.02
2018-04-25T12:58:23.469Z,97025.50
2018-04-25T13:00:50.994Z,97022.88
2018-04-25T13:03:18.759Z,97028.09
2018-04-25T13:05:46.880Z,97022.65
2018-04-25T13:08:14.419Z,97027.48
2018-04-25T13:10:41.937Z,97024.93
2018-04-25T13:13:09.853Z,97024.70
2018-04-25T13:15:37.366Z,97028.23
2018-04-25T13:18:05.026Z,97042.31
2018-04-25T13:20:32.893Z,97032.84
2018-04-25T13:23:00.503Z,97042.78
2018-04-25T13:25:28.600Z,97047.23
2018-04-25T13:27:56.378Z,97051.48
2018-04-25T13:30:24.257Z,97047.53
2018-04-25T13:32:52.189Z,97051.45
2018-04-25T13:35:20.091Z,97044.70
2018-04-25T13:37:47.773Z,97050.89
2018-04-25T13:40:16.237Z,97053.14
2018-04-25T13:42:44.399Z,97053.05
2018-04-25T13:45:12.991Z,97053.92
2018-04-25T13:47:40.653Z,97040.98
2018-04-25T13:50:08.252Z,97053.70
2018-04-25T13:52:36.119Z,97047.62
2018-04-25T13:55:03.882Z,97049.73
2018-04-25T13:57:31.601Z,97051.08
2018-04-25T13:59:59.476Z,97048.52
2018-04-25T14:02:27.137Z,97050.52
2018-04-25T14:04:55.296Z,97050.67
2018-04-25T14:07:22.847Z,97049.98
2018-04-25T14:09:50.642Z,97038.77
2018-04-25T14:12:18.529Z,97040.12
2018-04-25T14:14:46.366Z,97039.15
2018-04-25T14:17:13.930Z,97046.16
2018-04-25T14:19:41.504Z,97040.82
2018-04-25T14:22:09.540Z,97047.67
2018-04-25T14:24:37.410Z,97040.72
2018-04-25T14:27:05.473Z,97042.52
2018-04-25T14:29:33.773Z,97041.38
2018-04-25T14:32:01.742Z,97039.38
2018-04-25T14:34:29.635Z,97036.98
2018-04-25T14:36:57.170Z,97033.00
2018-04-25T14:39:25.825Z,97029.67
2018-04-25T14:41:53.588Z,97043.19
2018-04-25T14:44:21.791Z,97030.77
2018-04-25T14:46:49.963Z,97037.47
2018-04-25T14:49:18.126Z,97030.29
2018-04-25T14:51:45.799Z,97028.45
2018-04-25T14:54:13.540Z,97028.98
2018-04-25T14:56:41.317Z,97031.46
2018-04-25T14:59:08.885Z,97021.42
2018-04-25T15:01:36.421Z,97027.52
2018-04-25T15:04:04.418Z,97030.14
2018-04-25T15:06:32.181Z,97026.94
2018-04-25T15:08:59.782Z,97031.44
2018-04-25T15:11:27.710Z,97023.40
2018-04-25T15:13:55.575Z,97029.20
2018-04-25T15:16:23.647Z,97026.02
2018-04-25T15:18:51.691Z,97029.01
2018-04-25T15:21:19.460Z,97030.20
2018-04-25T15:23:47.465Z,97030.70
2018-04-25T15:26:15.624Z,97030.89
2018-04-25T15:28:43.492Z,97032.99
2018-04-25T15:31:11.327Z,97039.06
2018-04-25T15:33:39.534Z,97035.98
2018-04-25T15:36:07.914Z,97021.66
2018-04-25T15:38:36.190Z,97011.63
2018-04-25T15:41:06.099Z,97013.91
2018-04-25T15:43:33.967Z,97000.75
2018-04-25T15:46:01.832Z,97005.41
2018-04-25T15:48:30.110Z,97008.14
2018-04-25T15:50:57.978Z,97008.88
2018-04-25T15:53:25.964Z,97007.81
2018-04-25T15:55:54.841Z,97002.69
2018-04-25T15:58:22.706Z,97003.84
2018-04-25T16:00:50.569Z,97007.70
2018-04-25T16:03:18.947Z,97004.56
2018-04-25T16:05:47.941Z,97010.67
2018-04-25T16:08:16.091Z,97000.79
2018-04-25T16:10:43.957Z,97001.28
2018-04-25T16:13:11.701Z,96999.62
2018-04-25T16:15:39.518Z,97001.39
2018-04-25T16:18:07.788Z,97005.50
2018-04-25T16:20:36.268Z,97004.87
2018-04-25T16:23:04.845Z,97000.19
2018-04-25T16:25:33.638Z,97002.92
2018-04-25T16:28:01.301Z,96998.79
2018-04-25T16:30:29.167Z,96998.36
2018-04-25T16:32:57.036Z,96998.83
2018-04-25T16:35:24.798Z,96995.44
2018-04-25T16:37:52.439Z,96997.52
2018-04-25T16:40:20.215Z,96990.66
2018-04-25T16:42:47.847Z,96987.99
2018-04-25T16:45:15.444Z,96991.49
2018-04-25T16:47:43.413Z,96991.89
2018-04-25T16:50:10.939Z,96993.66
2018-04-25T16:52:38.738Z,96990.56
2018-04-25T16:55:06.602Z,96988.30
2018-04-25T16:57:34.152Z,96996.05
2018-04-25T17:00:01.677Z,96989.70
2018-04-25T17:02:29.227Z,96984.20
2018-04-25T17:04:56.919Z,96991.12
2018-04-25T17:07:24.539Z,96992.64
2018-04-25T17:09:52.371Z,96988.13
2018-04-25T17:12:19.968Z,96985.28
2018-04-25T17:14:47.563Z,96986.45
2018-04-25T17:17:15.780Z,96985.14
2018-04-25T17:19:43.515Z,96981.66
2018-04-25T17:22:11.081Z,96986.55
2018-04-25T17:24:38.850Z,96985.31
2018-04-25T17:27:06.516Z,96983.56
2018-04-25T17:29:34.382Z,96989.81
2018-04-25T17:32:02.444Z,96992.75
2018-04-25T17:34:30.215Z,96988.61
2018-04-25T17:36:57.830Z,96998.37
2018-04-25T17:39:27.027Z,97003.05
2018-04-25T17:41:54.745Z,97003.51
2018-04-25T17:44:22.491Z,97004.91
2018-04-25T17:46:50.471Z,96996.33
2018-04-25T17:49:18.103Z,97006.15
2018-04-25T17:51:45.896Z,97006.72
2018-04-25T17:54:14.253Z,97014.60
2018-04-25T17:56:42.096Z,97010.52
2018-04-25T17:59:10.521Z,97017.12
2018-04-25T18:01:39.052Z,97020.56
2018-04-25T18:04:07.385Z,97024.28
2018-04-25T18:06:35.249Z,97016.25
2018-04-25T18:09:03.381Z,97015.13
2018-04-25T18:11:31.176Z,97022.19
2018-04-25T18:13:59.053Z,97018.13
2018-04-25T18:16:26.923Z,97024.29
2018-04-25T18:18:55.601Z,97026.13
2018-04-25T18:21:25.054Z,97024.80
2018-04-25T18:23:53.182Z,97027.19
2018-04-25T18:26:20.901Z,97031.84
2018-04-25T18:28:48.590Z,97032.52
2018-04-25T18:31:16.784Z,97032.23
2018-04-25T18:33:44.546Z,97030.86
2018-04-25T18:36:12.412Z,97040.74
2018-04-25T18:38:40.278Z,97046.71
2018-04-25T18:41:08.146Z,97051.66
2018-04-25T18:43:36.112Z,97055.38
2018-04-25T18:46:04.081Z,97057.77
2018-04-25T18:48:31.947Z,97057.38
2018-04-25T18:50:59.773Z,97066.63
2018-04-25T18:53:27.990Z,97066.17
2018-04-25T18:55:55.762Z,97061.55
2018-04-25T18:58:24.644Z,97067.42
2018-04-25T19:00:52.821Z,97070.40
2018-04-25T19:03:20.888Z,97077.79
2018-04-25T19:05:48.757Z,97081.63
2018-04-25T19:08:17.021Z,97084.14
2018-04-25T19:10:45.104Z,97088.65
2018-04-25T19:13:13.180Z,97096.42
2018-04-25T19:15:41.319Z,97102.29
2018-04-25T19:18:09.830Z,97103.11
2018-04-25T19:20:37.694Z,97105.88
2018-04-25T19:23:06.072Z,97109.97
2018-04-25T19:25:34.359Z,97123.77
2018-04-25T19:28:03.034Z,97124.89
2018-04-25T19:30:30.964Z,97123.77
2018-04-25T19:32:58.888Z,97123.89
2018-04-25T19:35:26.941Z,97130.50
2018-04-25T19:37:55.115Z,97134.22
2018-04-25T19:40:24.035Z,97138.77
2018-04-25T19:42:51.898Z,97135.95
2018-04-25T19:45:20.660Z,97143.64
2018-04-25T19:47:48.630Z,97146.55
2018-04-25T19:50:16.598Z,97146.98
2018-04-25T19:52:44.773Z,97147.64
2018-04-25T19:55:13.254Z,97140.82
2018-04-25T19:57:41.088Z,97147.45
2018-04-25T20:00:09.250Z,97149.34
2018-04-25T20:02:37.161Z,97154.26
2018-04-25T20:05:05.137Z,97163.02
2018-04-25T20:07:33.272Z,97156.80
2018-04-25T20:10:01.053Z,97160.88
2018-04-25T20:12:28.934Z,97161.90
2018-04-25T20:14:57.723Z,97160.21
2018-04-25T20:17:25.486Z,97164.08
2018-04-25T20:19:53.025Z,97163.89
2018-04-25T20:22:20.910Z,97162.94
2018-04-25T20:24:48.566Z,97164.00
2018-04-25T20:27:16.441Z,97171.80
2018-04-25T20:29:44.462Z,97178.23
2018-04-25T20:32:12.283Z,97180.70
2018-04-25T20:34:40.164Z,97185.45
2018-04-25T20:37:08.419Z,97191.64
2018-04-25T20:39:36.174Z,97192.02
2018-04-25T20:42:03.847Z,97189.00
2018-04-25T20:44:32.020Z,97192.45
2018-04-25T20:46:59.886Z,97198.81
2018-04-25T20:49:27.715Z,97201.11
2018-04-25T20:51:55.884Z,97200.87
2018-04-25T20:54:23.595Z,97214.14
2018-04-25T20:56:51.380Z,97210.11
2018-04-25T20:59:19.324Z,97205.55
2018-04-25T21:01:47.496Z,97220.83
2018-04-25T21:04:15.258Z,97220.67
2018-04-25T21:06:43.653Z,97224.87
2018-04-25T21:09:11.422Z,97218.83
2018-04-25T21:11:39.019Z,97239.33
2018-04-25T21:14:07.310Z,97238.02
2018-04-25T21:16:34.979Z,97233.17
2018-04-25T21:19:02.642Z,97236.02
2018-04-25T21:21:30.431Z,97232.78
2018-04-25T21:23:58.134Z,97242.97
2018-04-25T21:26:25.855Z,97236.47
2018-04-25T21:28:54.332Z,97235.83
2018-04-25T21:31:21.885Z,97241.63
2018-04-25T21:33:49.657Z,97233.47
2018-04-25T21:36:17.604Z,97227.27
2018-04-25T21:38:45.257Z,97230.27
2018-04-25T21:41:12.925Z,97222.08
2018-04-25T21:43:40.694Z,97229.92
2018-04-25T21:46:08.246Z,97231.77
2018-04-25T21:48:36.228Z,97227.78
2018-04-25T21:51:03.982Z,97242.41
2018-04-25T21:53:31.498Z,97241.73
2018-04-25T21:55:59.022Z,97245.12
2018-04-25T21:58:26.597Z,97247.19
2018-04-25T22:00:54.135Z,97255.95
2018-04-25T22:03:22.652Z,97256.33
2018-04-25T22:05:50.453Z,97269.47
2018-04-25T22:08:17.961Z,97267.64
2018-04-25T22:10:45.531Z,97268.45
2018-04-25T22:13:13.173Z,97278.35
2018-04-25T22:15:40.733Z,97276.66
2018-04-25T22:18:08.245Z,97282.14
2018-04-25T22:20:35.788Z,97287.84
2018-04-25T22:23:03.319Z,97301.84
2018-04-25T22:25:30.828Z,97306.07
2018-04-25T22:27:58.391Z,97309.28
2018-04-25T22:30:25.899Z,97303.67
2018-04-25T22:32:53.752Z,97298.96
2018-04-25T22:35:21.491Z,97302.52
2018-04-25T22:37:49.007Z,97296.67
2018-04-25T22:40:16.566Z,97301.77
2018-04-25T22:42:44.160Z,97303.77
2018-04-25T22:45:11.705Z,97308.77
2018-04-25T22:47:39.225Z,97302.78
2018-04-25T22:50:07.190Z,97302.55
2018-04-25T22:52:34.716Z,97298.77
2018-04-25T22:55:02.240Z,97302.33
2018-04-25T22:57:29.800Z,97307.30
2018-04-25T22:59:57.320Z,97308.33
2018-04-25T23:02:24.988Z,97310.38
2018-04-25T23:04:52.716Z,97314.16
2018-04-25T23:07:20.247Z,97304.54
2018-04-25T23:09:47.772Z,97306.69
2018-04-25T23:12:15.483Z,97314.33
2018-04-25T23:14:43.017Z,97305.45
2018-04-25T23:17:10.532Z,97302.00
2018-04-25T23:19:38.499Z,97297.79
2018-04-25T23:22:06.029Z,97291.09
2018-04-25T23:24:33.544Z,97287.87
2018-04-25T23:27:01.112Z,97293.36
2018-04-25T23:29:28.630Z,97289.16
2018-04-25T23:31:56.277Z,97292.02
2018-04-25T23:34:24.137Z,97289.77
2018-04-25T23:36:51.660Z,97287.93
2018-04-25T23:39:19.203Z,97285.17
2018-04-25T23:41:46.832Z,97279.22
2018-04-25T23:44:14.356Z,97281.28
2018-04-25T23:46:41.871Z,97286.45
2018-04-25T23:49:09.418Z,97282.97
2018-04-25T23:51:36.937Z,97281.92
2018-04-25T23:54:04.516Z,97296.39
2018-04-25T23:56:32.431Z,97293.52
2018-04-25T23:58:59.953Z,97283.95
